sensor_id;sensor_type;location;lat;lon;timestamp;P1;durP1;ratioP1;P2;durP2;ratioP2
23634;SDS011;11994;51.038;16.974;2024-03-07T20:58:55;38.10;;;27.00;;
23634;SDS011;11994;51.038;16.974;2024-03-07T21:01:20;38.40;;;26.30;;
23634;SDS011;11994;51.038;16.974;2024-03-07T21:03:46;38.60;;;27.20;;
23634;SDS011;11994;51.038;16.974;2024-03-07T21:06:11;34.70;;;25.90;;
23634;SDS011;11994;51.038;16.974;2024-03-07T21:08:37;37.60;;;25.70;;
23634;SDS011;11994;51.038;16.974;2024-03-07T21:11:03;40.10;;;26.90;;
23634;SDS011;11994;51.038;16.974;2024-03-07T21:13:31;38.60;;;27.50;;
23634;SDS011;11994;51.038;16.974;2024-03-07T21:15:56;36.40;;;26.80;;
23634;SDS011;11994;51.038;16.974;2024-03-07T21:18:22;39.00;;;27.90;;
23634;SDS011;11994;51.038;16.974;2024-03-07T21:20:48;36.10;;;26.50;;
23634;SDS011;11994;51.038;16.974;2024-03-07T21:23:14;39.10;;;26.90;;
23634;SDS011;11994;51.038;16.974;2024-03-07T21:25:42;38.70;;;25.90;;
23634;SDS011;11994;51.038;16.974;2024-03-07T21:28:08;34.60;;;24.50;;
23634;SDS011;11994;51.038;16.974;2024-03-07T21:30:36;37.90;;;24.40;;
23634;SDS011;11994;51.038;16.974;2024-03-07T21:33:02;37.60;;;24.60;;
23634;SDS011;11994;51.038;16.974;2024-03-07T21:35:29;37.30;;;26.00;;
23634;SDS011;11994;51.038;16.974;2024-03-07T21:37:57;36.40;;;25.20;;
23634;SDS011;11994;51.038;16.974;2024-03-07T21:40:24;36.80;;;26.30;;
23634;SDS011;11994;51.038;16.974;2024-03-07T21:42:50;37.00;;;27.30;;
23634;SDS011;11994;51.038;16.974;2024-03-07T21:45:15;39.70;;;26.40;;
23634;SDS011;11994;51.038;16.974;2024-03-07T21:47:41;41.00;;;26.50;;
23634;SDS011;11994;51.038;16.974;2024-03-07T21:50:10;36.70;;;25.80;;
23634;SDS011;11994;51.038;16.974;2024-03-07T21:52:42;39.70;;;28.00;;
23634;SDS011;11994;51.038;16.974;2024-03-07T21:55:10;38.80;;;27.40;;
23634;SDS011;11994;51.038;16.974;2024-03-07T21:57:39;39.60;;;27.50;;
23634;SDS011;11994;51.038;16.974;2024-03-07T22:00:08;38.90;;;26.80;;
23634;SDS011;11994;51.038;16.974;2024-03-07T22:02:41;38.20;;;27.20;;
23634;SDS011;11994;51.038;16.974;2024-03-07T22:05:09;40.90;;;26.80;;
23634;SDS011;11994;51.038;16.974;2024-03-07T22:07:47;36.70;;;26.90;;
23634;SDS011;11994;51.038;16.974;2024-03-07T22:10:15;41.30;;;28.00;;
23634;SDS011;11994;51.038;16.974;2024-03-07T22:12:41;40.40;;;27.70;;
23634;SDS011;11994;51.038;16.974;2024-03-07T22:15:08;36.90;;;25.80;;
23634;SDS011;11994;51.038;16.974;2024-03-07T22:17:39;40.60;;;26.50;;
23634;SDS011;11994;51.038;16.974;2024-03-07T22:20:07;36.80;;;25.20;;
23634;SDS011;11994;51.038;16.974;2024-03-07T22:22:34;35.00;;;24.10;;
23634;SDS011;11994;51.038;16.974;2024-03-07T22:25:00;36.20;;;25.40;;
23634;SDS011;11994;51.038;16.974;2024-03-07T22:27:28;37.10;;;26.40;;
23634;SDS011;11994;51.038;16.974;2024-03-07T22:29:54;38.70;;;26.70;;
23634;SDS011;11994;51.038;16.974;2024-03-07T22:32:22;36.10;;;26.10;;
23634;SDS011;11994;51.038;16.974;2024-03-07T22:34:51;37.10;;;26.90;;
23634;SDS011;11994;51.038;16.974;2024-03-07T22:37:21;39.50;;;27.10;;
23634;SDS011;11994;51.038;16.974;2024-03-07T22:39:47;40.50;;;28.40;;
23634;SDS011;11994;51.038;16.974;2024-03-07T22:42:56;40.40;;;28.60;;
23634;SDS011;11994;51.038;16.974;2024-03-07T22:45:22;40.60;;;28.90;;
23634;SDS011;11994;51.038;16.974;2024-03-07T22:47:48;40.60;;;27.60;;
23634;SDS011;11994;51.038;16.974;2024-03-07T22:50:16;42.30;;;28.30;;
